MSC Michela — CQID5 — position and weather

sailwx.info

Track history (hours):
 
Tides and Currents Weather Stations Pressure Air Temp Water Temp Dewpoint Dewpoint Depression Visibility Wind Speed Wind Dir Waves Ship Positions

MSC Michela

Last reported at 2017-Oct-19 18:25 UTC. Time now 2017-Oct-19 20:06 UTC.
Position N 38°30' E 010°00'.

Length 300 m; draft 9.8 m.

Type: Ship (hazmat cat A). MMSI: 255805929.

Date/timePositionNaut miles runAvg speedWind from/ knotsBaromVisibWave heightAir tempDewpointWater temp
2017-Oct-19 18:25N 38°30' E 010°00'1020.9
2017-Oct-19 17:57N 38°30' E 009°48'920.4
2017-Oct-19 17:30N 38°31' E 009°36'1319.9
2017-Oct-19 16:49N 38°31' E 009°19'620.1
2017-Oct-19 16:30N 38°31' E 009°11'2520.3
2017-Oct-19 15:16N 38°32' E 008°39'620.3
2017-Oct-19 14:57N 38°32' E 008°30'33520.3
2017-Oct-18 22:26N 41°18' E 002°10'1 1.1
2017-Oct-18 21:17N 41°19' E 002°09'0 0.0
2017-Oct-18 20:14N 41°19' E 002°09'0 0.0
2017-Oct-18 19:59N 41°19' E 002°09'0 0.0
2017-Oct-18 19:29N 41°19' E 002°09'0 0.0
2017-Oct-18 18:05N 41°19' E 002°09'0 0.0
2017-Oct-18 10:12N 41°19' E 002°09'0 1.4
2017-Oct-18 09:53N 41°19' E 002°09'6 4.6
2017-Oct-18 08:33N 41°13' E 002°12'1 9.2
2017-Oct-18 08:29N 41°12' E 002°12'510.3
2017-Oct-18 08:01N 41°08' E 002°10'5 9.9
2017-Oct-18 07:30N 41°03' E 002°07'815.0
2017-Oct-18 07:00N 40°58' E 002°00'19617.9
2017-Oct-17 20:03N 38°06' W 000°03'718.1
2017-Oct-17 19:40N 38°00' W 000°08'618.1
2017-Oct-17 19:20N 37°55' W 000°12'618.1
2017-Oct-17 19:00N 37°50' W 000°16'917.9
2017-Oct-17 18:30N 37°43' W 000°23'918.0
2017-Oct-17 18:00N 37°36' W 000°29'918.3
2017-Oct-17 17:29N 37°29' W 000°37'918.9
2017-Oct-17 17:00N 37°22' W 000°46'918.8
2017-Oct-17 16:30N 37°16' W 000°54'918.6
2017-Oct-17 16:00N 37°10' W 001°03'20517.6
2017-Oct-17 04:23N 36°02' W 005°04'719.0
2017-Oct-17 04:00N 36°00' W 005°13'1020.1
2017-Oct-17 03:31N 35°58' W 005°25'1120.8
2017-Oct-17 02:59N 35°54' W 005°37'1220.8
2017-Oct-17 02:25N 35°54' W 005°52'920.0
2017-Oct-17 01:59N 35°54' W 006°03'1120.0
2017-Oct-17 01:27N 35°53' W 006°16'14120.7
2017-Oct-16 18:38N 34°54' W 008°52'  
Track history (hours):
 
Tides and Currents Weather Stations Pressure Air Temp Water Temp Dewpoint Dewpoint Depression Visibility Wind Speed Wind Dir Waves Ship Positions

MSC Michela

Last reported at 2017-Oct-19 18:25 UTC. Time now 2017-Oct-19 20:06 UTC.
Position N 38°30' E 010°00'.

Length 300 m; draft 9.8 m.

Type: Ship (hazmat cat A). MMSI: 255805929.

Date/timePositionNaut miles runAvg speedWind from/ knotsBaromVisibWave heightAir tempDewpointWater temp
2017-Oct-19 18:25N 38°30' E 010°00'1020.9
2017-Oct-19 17:57N 38°30' E 009°48'920.4
2017-Oct-19 17:30N 38°31' E 009°36'1319.9
2017-Oct-19 16:49N 38°31' E 009°19'620.1
2017-Oct-19 16:30N 38°31' E 009°11'2520.3
2017-Oct-19 15:16N 38°32' E 008°39'620.3
2017-Oct-19 14:57N 38°32' E 008°30'33520.3
2017-Oct-18 22:26N 41°18' E 002°10'1 1.1
2017-Oct-18 21:17N 41°19' E 002°09'0 0.0
2017-Oct-18 20:14N 41°19' E 002°09'0 0.0
2017-Oct-18 19:59N 41°19' E 002°09'0 0.0
2017-Oct-18 19:29N 41°19' E 002°09'0 0.0
2017-Oct-18 18:05N 41°19' E 002°09'0 0.0
2017-Oct-18 10:12N 41°19' E 002°09'0 1.4
2017-Oct-18 09:53N 41°19' E 002°09'6 4.6
2017-Oct-18 08:33N 41°13' E 002°12'1 9.2
2017-Oct-18 08:29N 41°12' E 002°12'510.3
2017-Oct-18 08:01N 41°08' E 002°10'5 9.9
2017-Oct-18 07:30N 41°03' E 002°07'815.0
2017-Oct-18 07:00N 40°58' E 002°00'19617.9
2017-Oct-17 20:03N 38°06' W 000°03'718.1
2017-Oct-17 19:40N 38°00' W 000°08'618.1
2017-Oct-17 19:20N 37°55' W 000°12'618.1
2017-Oct-17 19:00N 37°50' W 000°16'917.9
2017-Oct-17 18:30N 37°43' W 000°23'918.0
2017-Oct-17 18:00N 37°36' W 000°29'918.3
2017-Oct-17 17:29N 37°29' W 000°37'918.9
2017-Oct-17 17:00N 37°22' W 000°46'918.8
2017-Oct-17 16:30N 37°16' W 000°54'918.6
2017-Oct-17 16:00N 37°10' W 001°03'20517.6
2017-Oct-17 04:23N 36°02' W 005°04'719.0
2017-Oct-17 04:00N 36°00' W 005°13'1020.1
2017-Oct-17 03:31N 35°58' W 005°25'1120.8
2017-Oct-17 02:59N 35°54' W 005°37'1220.8
2017-Oct-17 02:25N 35°54' W 005°52'920.0
2017-Oct-17 01:59N 35°54' W 006°03'1120.0
2017-Oct-17 01:27N 35°53' W 006°16'14120.7
2017-Oct-16 18:38N 34°54' W 008°52'  

Dump ship's entire track history